Cemaes Bay, United Kingdom
Current Conditions -  °F | °C
As of 5:50 AM on Thursday 23 Oct 2014 (Local Time) from EGOV Reporting Station
Broken Clouds Broken Clouds  
Wind Chill: 14°   Ceiling: 3000
Heat Index: 14°   Visibility: 6mi
Dew Point: 12°   Wind: 21mph
Humidity: 88%   Direction: 210°SSW
Pressure: 29.97"   Gusts: NA
Location:  53.41°N, 4.46°W
Report Text: EGOV 230450Z 21018KT 9999 FEW010 BKN030 14/12 Q1015 BLU
Loading
Personal Weather Stations






























Interactive Weather Map
Tropical Storm Tracking
New forecast layout! Learn more

10-Day Weather Forecast

Advertisements
Track Severe Weather on mobile